Time;durP1;ratioP1;P1;durP2;ratioP2;P2;SDS_P1;SDS_P2;PMS_P1;PMS_P2;Temp;Humidity;BMP_temperature;BMP_pressure;BME280_temperature;BME280_humidity;BME280_pressure;Samples;Min_cycle;Max_cycle;Signal;HPM_P1;HPM_P2
2023/10/22 00:00:07;;;;;;;8.18;2.90;;;13.60;99.90;;;;;;5037771;28;20726;-68
2023/10/22 00:02:37;;;;;;;5.10;2.40;;;13.60;99.90;;;;;;5054214;28;20186;-68
2023/10/22 00:05:04;;;;;;;6.07;2.70;;;13.60;99.90;;;;;;5056391;28;20551;-69
2023/10/22 00:07:30;;;;;;;3.80;2.55;;;13.70;99.90;;;;;;5037648;28;20220;-69
2023/10/22 00:09:56;;;;;;;6.63;2.70;;;13.60;99.90;;;;;;5055290;28;20639;-68
2023/10/22 00:12:22;;;;;;;6.00;2.53;;;13.70;99.90;;;;;;5056121;28;20189;-68
2023/10/22 00:14:48;;;;;;;3.83;2.60;;;13.70;99.90;;;;;;5037581;28;20217;-68
2023/10/22 00:17:13;;;;;;;6.97;2.65;;;13.70;99.90;;;;;;5054686;28;20240;-71
2023/10/22 00:19:44;;;;;;;4.55;2.95;;;13.70;99.90;;;;;;5054810;28;20597;-69
2023/10/22 00:22:24;;;;;;;6.60;2.60;;;13.70;99.90;;;;;;5030302;28;20190;-68
2023/10/22 00:24:50;;;;;;;8.13;2.85;;;13.70;99.90;;;;;;5017348;28;20187;-68
2023/10/22 00:27:15;;;;;;;5.90;2.60;;;13.70;99.90;;;;;;5017323;28;20183;-69
2023/10/22 00:29:41;;;;;;;7.47;2.90;;;13.70;99.90;;;;;;5052505;28;20186;-68
2023/10/22 00:32:07;;;;;;;7.30;2.67;;;13.70;99.90;;;;;;5055048;28;20177;-68
2023/10/22 00:34:33;;;;;;;5.38;2.55;;;13.70;99.90;;;;;;5033572;28;20215;-68
2023/10/22 00:36:58;;;;;;;3.83;2.80;;;13.70;99.90;;;;;;5034873;28;20175;-69
2023/10/22 00:39:24;;;;;;;9.88;3.08;;;13.70;99.90;;;;;;5030962;28;20183;-69
2023/10/22 00:41:50;;;;;;;5.45;2.67;;;13.70;99.90;;;;;;5033713;28;20213;-68
2023/10/22 00:44:16;;;;;;;10.32;2.75;;;13.60;99.90;;;;;;5033996;28;20175;-68
2023/10/22 00:46:45;;;;;;;7.03;2.97;;;13.60;99.90;;;;;;5034877;28;20187;-68
2023/10/22 00:49:12;;;;;;;7.50;2.90;;;13.60;99.90;;;;;;5032312;28;20641;-68
2023/10/22 00:51:38;;;;;;;6.45;2.90;;;13.60;99.90;;;;;;5033381;28;20187;-68
2023/10/22 00:54:04;;;;;;;4.72;2.40;;;13.60;99.90;;;;;;5032677;28;20737;-68
2023/10/22 00:56:30;;;;;;;3.50;2.50;;;13.60;99.90;;;;;;5033479;28;20658;-68
2023/10/22 00:58:56;;;;;;;5.60;2.67;;;13.60;99.90;;;;;;5033275;28;20286;-68
2023/10/22 01:01:22;;;;;;;3.58;2.50;;;13.50;99.90;;;;;;5031385;28;20198;-69
2023/10/22 01:03:48;;;;;;;2.97;2.60;;;13.50;99.90;;;;;;5031969;28;20651;-69
2023/10/22 01:06:14;;;;;;;5.55;2.80;;;13.50;99.90;;;;;;5031313;28;20183;-68
2023/10/22 01:08:41;;;;;;;4.88;2.60;;;13.50;99.90;;;;;;5032718;28;20213;-69
2023/10/22 01:11:08;;;;;;;4.25;2.55;;;13.50;99.90;;;;;;5034934;28;20193;-69
2023/10/22 01:13:34;;;;;;;5.00;2.70;;;13.50;99.90;;;;;;5031525;28;20294;-68
2023/10/22 01:15:59;;;;;;;7.22;2.55;;;13.40;99.90;;;;;;5034905;28;20239;-69
2023/10/22 01:18:25;;;;;;;6.00;2.72;;;13.40;99.90;;;;;;5034313;28;20274;-67
2023/10/22 01:20:51;;;;;;;4.65;2.58;;;13.40;99.90;;;;;;5027914;28;20184;-68
2023/10/22 01:23:17;;;;;;;5.85;2.60;;;13.40;99.90;;;;;;5034193;28;20237;-68
2023/10/22 01:25:43;;;;;;;4.32;2.50;;;13.40;99.90;;;;;;5031207;28;20198;-68
2023/10/22 01:28:09;;;;;;;4.43;2.55;;;13.40;99.90;;;;;;5034126;28;20261;-69
2023/10/22 01:30:35;;;;;;;5.88;2.53;;;13.40;99.90;;;;;;5034469;28;20293;-68
2023/10/22 01:33:01;;;;;;;4.90;2.60;;;13.40;99.90;;;;;;5032619;28;20191;-68
2023/10/22 01:35:27;;;;;;;5.32;2.45;;;13.40;99.90;;;;;;5049640;28;20237;-69
2023/10/22 01:37:53;;;;;;;6.10;2.67;;;13.40;99.90;;;;;;5053803;28;20747;-68
2023/10/22 01:40:19;;;;;;;5.05;2.85;;;13.40;99.90;;;;;;5068990;28;20174;-69
2023/10/22 01:42:45;;;;;;;4.60;2.80;;;13.40;99.90;;;;;;5036113;28;20224;-68
2023/10/22 01:45:11;;;;;;;2.97;2.70;;;13.40;99.90;;;;;;5054080;28;20547;-67
2023/10/22 01:47:37;;;;;;;3.53;2.40;;;13.40;99.90;;;;;;5053678;28;20194;-68
2023/10/22 01:50:07;;;;;;;4.05;2.60;;;13.40;99.90;;;;;;5052145;28;20201;-68
2023/10/22 01:52:32;;;;;;;4.15;2.47;;;13.40;99.90;;;;;;5053556;28;20171;-68
2023/10/22 01:54:58;;;;;;;6.00;2.90;;;13.30;99.90;;;;;;5053143;28;20674;-68
2023/10/22 01:57:24;;;;;;;5.18;2.85;;;13.40;99.90;;;;;;5052202;28;20690;-68
2023/10/22 01:59:50;;;;;;;11.60;3.50;;;13.30;99.90;;;;;;5053492;28;20610;-69
2023/10/22 02:02:17;;;;;;;4.82;2.60;;;13.30;99.90;;;;;;5034422;28;20236;-68
2023/10/22 02:04:43;;;;;;;5.53;3.03;;;13.30;99.90;;;;;;5053835;28;20171;-68
2023/10/22 02:07:09;;;;;;;3.85;2.58;;;13.30;99.90;;;;;;5035455;28;20639;-68
2023/10/22 02:09:35;;;;;;;7.97;2.72;;;13.40;99.90;;;;;;5053417;28;20175;-68
2023/10/22 02:12:01;;;;;;;8.25;2.63;;;13.30;99.90;;;;;;5053698;28;20654;-68
2023/10/22 02:14:27;;;;;;;3.83;2.65;;;13.30;99.90;;;;;;5068693;28;20701;-68
2023/10/22 02:16:52;;;;;;;3.97;2.50;;;13.30;99.90;;;;;;5053669;28;20217;-69
2023/10/22 02:19:18;;;;;;;4.55;2.67;;;13.30;99.90;;;;;;5052079;28;20202;-68
2023/10/22 02:21:45;;;;;;;3.03;2.20;;;13.30;99.90;;;;;;5053761;28;20179;-69
2023/10/22 02:24:11;;;;;;;2.33;2.20;;;13.30;99.90;;;;;;5053834;28;20711;-68
2023/10/22 02:26:37;;;;;;;6.30;3.03;;;13.20;99.90;;;;;;5053779;28;20198;-68
2023/10/22 02:29:03;;;;;;;4.45;2.80;;;13.20;99.90;;;;;;5053126;28;20228;-68
2023/10/22 02:31:29;;;;;;;6.30;2.30;;;13.20;99.90;;;;;;5049706;28;20186;-68
2023/10/22 02:34:21;;;;;;;4.63;2.47;;;13.20;99.90;;;;;;5035123;28;20221;-68
2023/10/22 02:36:46;;;;;;;4.93;2.50;;;13.20;99.90;;;;;;5049459;28;20191;-68
2023/10/22 02:39:12;;;;;;;4.10;2.85;;;13.20;99.90;;;;;;5052842;28;20239;-68
2023/10/22 02:41:38;;;;;;;4.80;2.58;;;13.20;99.90;;;;;;5068397;28;20228;-68
2023/10/22 02:44:04;;;;;;;5.47;2.70;;;13.20;99.90;;;;;;5053029;28;20170;-68
2023/10/22 02:46:30;;;;;;;4.07;2.78;;;13.20;99.90;;;;;;5052949;28;20190;-68
2023/10/22 02:48:58;;;;;;;4.53;2.70;;;13.20;99.90;;;;;;5051511;28;20248;-69
2023/10/22 02:51:23;;;;;;;3.90;2.70;;;13.10;99.90;;;;;;5053188;28;20174;-69
2023/10/22 02:53:49;;;;;;;4.72;2.75;;;13.10;99.90;;;;;;5052629;28;20221;-68
2023/10/22 02:56:15;;;;;;;4.32;2.58;;;13.10;99.90;;;;;;5052782;28;20170;-68
2023/10/22 02:58:41;;;;;;;3.55;2.60;;;13.10;99.90;;;;;;5052760;28;20202;-68
2023/10/22 03:01:08;;;;;;;5.53;2.72;;;13.10;99.90;;;;;;5051543;28;20181;-67
2023/10/22 03:03:41;;;;;;;4.38;2.83;;;13.10;99.90;;;;;;5055309;28;20236;-68
2023/10/22 03:06:12;;;;;;;5.97;2.70;;;13.00;99.90;;;;;;5057368;28;20159;-68
2023/10/22 03:08:40;;;;;;;5.65;2.88;;;13.00;99.90;;;;;;5056242;28;20625;-68
2023/10/22 03:11:13;;;;;;;5.57;2.67;;;12.90;99.90;;;;;;5038793;28;20174;-68
2023/10/22 03:13:38;;;;;;;6.13;2.58;;;12.90;99.90;;;;;;5056564;28;20187;-68
2023/10/22 03:16:11;;;;;;;7.35;2.85;;;12.90;99.90;;;;;;5038588;28;20189;-68
2023/10/22 03:18:37;;;;;;;5.60;2.55;;;12.80;99.90;;;;;;5027883;28;20726;-67
2023/10/22 03:21:19;;;;;;;4.45;3.00;;;12.90;99.90;;;;;;5036648;28;20182;-67
2023/10/22 03:23:45;;;;;;;6.70;2.90;;;12.80;99.90;;;;;;5036969;28;20677;-67
2023/10/22 03:26:16;;;;;;;4.38;2.63;;;12.80;99.90;;;;;;5036482;28;20175;-68
2023/10/22 03:28:46;;;;;;;5.70;2.70;;;12.70;99.90;;;;;;5045572;28;20225;-67
2023/10/22 03:31:12;;;;;;;3.08;2.78;;;12.70;99.90;;;;;;5056274;28;20527;-67
2023/10/22 03:33:38;;;;;;;5.35;2.92;;;12.70;99.90;;;;;;5054535;28;20214;-68
2023/10/22 03:36:05;;;;;;;4.95;2.97;;;12.70;99.90;;;;;;5054848;28;20186;-67
2023/10/22 03:38:31;;;;;;;5.03;2.53;;;12.70;99.90;;;;;;5056036;28;20216;-71
2023/10/22 03:41:04;;;;;;;3.70;2.70;;;12.70;99.90;;;;;;5056035;28;20171;-67
2023/10/22 03:43:31;;;;;;;6.45;2.65;;;12.70;99.90;;;;;;5055902;28;20166;-68
2023/10/22 03:46:01;;;;;;;4.28;2.60;;;12.70;99.90;;;;;;5054637;28;20183;-68
2023/10/22 03:48:27;;;;;;;4.57;2.75;;;12.70;99.90;;;;;;5037938;28;20226;-68
2023/10/22 03:50:54;;;;;;;7.03;2.78;;;12.70;99.90;;;;;;5055785;28;20174;-67
2023/10/22 03:53:21;;;;;;;3.45;2.58;;;12.70;99.90;;;;;;5055822;28;20202;-68
2023/10/22 03:55:47;;;;;;;5.55;2.83;;;12.60;99.90;;;;;;5070723;28;20673;-68
2023/10/22 03:58:13;;;;;;;5.97;3.03;;;12.60;99.90;;;;;;5055636;28;20250;-67
2023/10/22 04:00:39;;;;;;;6.28;2.95;;;12.50;99.90;;;;;;5054515;28;20212;-68
2023/10/22 04:03:05;;;;;;;2.88;2.22;;;12.50;99.90;;;;;;5053923;28;20190;-68
2023/10/22 04:05:30;;;;;;;4.55;2.55;;;12.40;99.90;;;;;;5055535;28;20182;-67
2023/10/22 04:07:56;;;;;;;3.85;2.60;;;12.30;99.90;;;;;;5055899;28;20270;-67
2023/10/22 04:10:22;;;;;;;5.47;2.63;;;12.30;99.90;;;;;;5055075;28;20569;-67
2023/10/22 04:12:48;;;;;;;3.65;2.33;;;12.20;99.90;;;;;;5055403;28;20170;-67
2023/10/22 04:15:14;;;;;;;4.15;2.55;;;12.20;99.90;;;;;;5068831;28;20217;-68
2023/10/22 04:17:40;;;;;;;5.93;2.83;;;12.20;99.90;;;;;;5055398;28;20190;-67
2023/10/22 04:20:06;;;;;;;5.63;2.55;;;12.20;99.90;;;;;;5037328;28;20171;-68
2023/10/22 04:22:32;;;;;;;3.40;2.40;;;12.20;99.90;;;;;;5070573;28;20186;-68
2023/10/22 04:24:58;;;;;;;6.95;2.92;;;12.20;99.90;;;;;;5054997;28;20170;-67
2023/10/22 04:27:24;;;;;;;5.03;2.83;;;12.20;99.90;;;;;;5055021;28;20200;-68
2023/10/22 04:29:50;;;;;;;5.78;2.55;;;12.20;99.90;;;;;;5054927;28;20189;-68
2023/10/22 04:32:19;;;;;;;5.20;2.60;;;12.10;99.90;;;;;;5053512;28;20236;-68
2023/10/22 04:34:45;;;;;;;3.88;2.78;;;12.10;99.90;;;;;;5054711;28;20210;-67
2023/10/22 04:37:11;;;;;;;3.80;2.65;;;12.10;99.90;;;;;;5054791;28;20174;-68
2023/10/22 04:39:37;;;;;;;3.05;2.60;;;12.10;99.90;;;;;;5054902;28;20170;-67
2023/10/22 04:42:03;;;;;;;3.92;2.65;;;12.10;99.90;;;;;;5036826;28;20239;-68
2023/10/22 04:44:29;;;;;;;9.10;2.75;;;12.00;99.90;;;;;;5070123;28;20178;-68
2023/10/22 04:46:55;;;;;;;6.95;3.33;;;12.00;99.90;;;;;;5053097;28;20244;-68
2023/10/22 04:49:21;;;;;;;5.35;2.58;;;12.00;99.90;;;;;;5054737;28;20194;-67
2023/10/22 04:51:46;;;;;;;6.32;2.60;;;11.90;99.90;;;;;;5055256;28;20159;-67
2023/10/22 04:54:12;;;;;;;9.90;3.30;;;11.90;99.90;;;;;;5054225;28;20675;-68
2023/10/22 04:56:38;;;;;;;4.88;2.60;;;11.90;99.90;;;;;;5036559;28;20182;-67
2023/10/22 04:59:04;;;;;;;6.43;2.63;;;11.80;99.90;;;;;;5054583;28;20214;-67
2023/10/22 05:01:30;;;;;;;3.72;2.20;;;11.80;99.90;;;;;;5052602;28;20666;-68
2023/10/22 05:03:56;;;;;;;8.90;2.80;;;11.80;99.90;;;;;;5051740;28;20205;-67
2023/10/22 05:06:21;;;;;;;5.15;2.50;;;11.80;99.90;;;;;;5054289;28;20193;-67
2023/10/22 05:08:47;;;;;;;4.18;2.67;;;11.70;99.90;;;;;;5054245;28;20194;-68
2023/10/22 05:11:17;;;;;;;5.15;2.60;;;11.70;99.90;;;;;;5053991;28;20214;-67
2023/10/22 05:13:46;;;;;;;3.00;2.35;;;11.70;99.90;;;;;;5036229;28;20209;-68
2023/10/22 05:16:13;;;;;;;5.82;2.75;;;11.70;99.90;;;;;;5051466;28;20297;-68
2023/10/22 05:18:39;;;;;;;4.30;2.45;;;11.70;99.90;;;;;;5036160;28;20199;-68
2023/10/22 05:21:06;;;;;;;3.53;2.53;;;11.70;99.90;;;;;;5054025;28;20175;-68
2023/10/22 05:23:35;;;;;;;3.25;2.40;;;11.70;99.90;;;;;;5054542;28;20194;-67
2023/10/22 05:26:08;;;;;;;6.28;2.60;;;11.70;99.90;;;;;;5053074;28;20213;-67
2023/10/22 05:28:35;;;;;;;3.05;2.70;;;11.80;99.90;;;;;;5064104;28;20206;-67
2023/10/22 05:31:01;;;;;;;3.65;2.60;;;11.80;99.90;;;;;;5051158;28;20182;-67
2023/10/22 05:33:27;;;;;;;3.65;2.70;;;11.80;99.90;;;;;;5053726;28;20198;-67
2023/10/22 05:35:52;;;;;;;3.47;2.50;;;11.80;99.90;;;;;;5053648;28;20217;-68
2023/10/22 05:38:18;;;;;;;3.53;2.33;;;11.80;99.90;;;;;;5053617;28;20659;-67
2023/10/22 05:40:44;;;;;;;4.78;2.90;;;11.80;99.90;;;;;;5053418;28;20197;-67
2023/10/22 05:43:10;;;;;;;2.58;2.30;;;11.90;99.90;;;;;;5053590;28;20174;-67
2023/10/22 05:45:35;;;;;;;3.25;2.78;;;11.90;99.90;;;;;;5050738;28;20233;-67
2023/10/22 05:48:02;;;;;;;4.03;2.40;;;11.90;99.90;;;;;;5053647;28;20191;-67
2023/10/22 05:50:27;;;;;;;3.35;2.58;;;11.90;99.90;;;;;;5053613;28;20155;-67
2023/10/22 05:52:53;;;;;;;3.55;2.40;;;11.90;99.90;;;;;;5053482;28;20159;-67
2023/10/22 05:55:19;;;;;;;2.78;2.30;;;12.00;99.90;;;;;;5053270;28;20186;-67
2023/10/22 05:57:45;;;;;;;2.33;2.20;;;12.00;99.90;;;;;;5053320;28;20340;-68
2023/10/22 06:00:12;;;;;;;2.85;2.50;;;12.00;99.90;;;;;;5033870;28;20174;-68
2023/10/22 06:02:38;;;;;;;7.60;2.78;;;12.00;99.90;;;;;;5053573;28;20640;-67
2023/10/22 06:05:04;;;;;;;5.50;2.42;;;12.00;99.90;;;;;;5051861;28;20220;-67
2023/10/22 06:07:30;;;;;;;5.38;2.75;;;12.00;99.90;;;;;;5035260;28;20217;-67
2023/10/22 06:09:56;;;;;;;2.30;2.10;;;12.00;99.90;;;;;;5052900;28;20651;-67
2023/10/22 06:12:22;;;;;;;2.55;2.30;;;11.90;99.90;;;;;;5053117;28;20258;-67
2023/10/22 06:14:47;;;;;;;3.45;2.33;;;11.80;99.90;;;;;;5053117;28;20675;-67
2023/10/22 06:17:13;;;;;;;2.53;2.35;;;11.80;99.90;;;;;;5051968;28;20674;-68
2023/10/22 06:19:39;;;;;;;2.33;2.22;;;11.80;99.90;;;;;;5069383;28;20200;-67
2023/10/22 06:22:05;;;;;;;2.10;2.00;;;11.70;99.90;;;;;;5053077;28;20578;-66
2023/10/22 06:24:31;;;;;;;2.40;2.20;;;11.70;99.90;;;;;;5052927;28;20159;-67
2023/10/22 06:26:56;;;;;;;2.33;2.22;;;11.70;99.90;;;;;;5053596;28;20178;-67
2023/10/22 06:29:22;;;;;;;2.60;2.40;;;11.70;99.90;;;;;;5052849;28;20265;-67
2023/10/22 06:31:48;;;;;;;2.60;2.40;;;11.70;99.90;;;;;;5033585;28;20559;-67
2023/10/22 06:34:14;;;;;;;2.35;2.25;;;11.70;99.90;;;;;;5052716;28;20221;-67
2023/10/22 06:36:39;;;;;;;2.47;2.00;;;11.70;99.90;;;;;;5053206;28;20635;-67
2023/10/22 06:39:05;;;;;;;2.30;2.20;;;11.70;99.90;;;;;;5071534;28;20201;-73
2023/10/22 06:41:32;;;;;;;2.20;2.10;;;11.60;99.90;;;;;;5056966;28;20215;-69
2023/10/22 06:43:57;;;;;;;2.20;2.10;;;11.60;99.90;;;;;;5057180;28;20179;-67
2023/10/22 06:46:23;;;;;;;2.58;2.20;;;11.50;99.90;;;;;;5037750;28;20198;-66
2023/10/22 06:48:49;;;;;;;2.30;2.20;;;11.60;99.90;;;;;;5057336;28;20194;-67
2023/10/22 06:51:16;;;;;;;2.60;2.40;;;11.50;99.90;;;;;;5038957;28;20572;-67
2023/10/22 06:53:43;;;;;;;3.42;2.35;;;11.50;99.90;;;;;;5056856;28;20194;-67
2023/10/22 06:56:09;;;;;;;2.30;2.20;;;11.40;99.90;;;;;;5056480;28;20170;-67
2023/10/22 06:58:35;;;;;;;2.20;2.10;;;11.40;99.90;;;;;;5066916;28;20209;-66
2023/10/22 07:01:12;;;;;;;2.50;2.30;;;11.50;99.90;;;;;;5055346;28;20183;-66
2023/10/22 07:03:41;;;;;;;3.28;2.20;;;11.50;99.90;;;;;;5057004;28;20522;-66
2023/10/22 07:06:07;;;;;;;2.20;2.10;;;11.50;99.90;;;;;;5055239;28;20248;-66
2023/10/22 07:08:33;;;;;;;2.30;2.20;;;11.50;99.90;;;;;;5056483;28;20191;-66
2023/10/22 07:10:59;;;;;;;2.30;2.20;;;11.50;99.90;;;;;;5056262;28;20186;-66
2023/10/22 07:13:25;;;;;;;2.20;2.10;;;11.50;99.90;;;;;;5056351;28;20224;-66
2023/10/22 07:15:52;;;;;;;2.25;2.15;;;11.50;99.90;;;;;;5037053;28;20210;-66
2023/10/22 07:18:18;;;;;;;2.30;2.20;;;11.60;99.90;;;;;;5038420;28;20195;-67
2023/10/22 07:20:44;;;;;;;2.20;2.10;;;11.60;99.90;;;;;;5071742;28;20183;-67
2023/10/22 07:23:10;;;;;;;2.58;2.33;;;11.60;99.90;;;;;;5056597;28;20594;-65
2023/10/22 07:25:37;;;;;;;2.10;2.00;;;11.60;99.90;;;;;;5055948;28;20220;-66
2023/10/22 07:28:05;;;;;;;2.50;2.30;;;11.70;99.90;;;;;;5056255;28;20198;-65
2023/10/22 07:30:32;;;;;;;2.38;2.20;;;11.70;99.90;;;;;;5053138;28;20577;-65
2023/10/22 07:32:58;;;;;;;3.15;2.13;;;11.70;99.90;;;;;;5038212;28;20159;-66
2023/10/22 07:35:24;;;;;;;2.20;2.10;;;11.70;99.90;;;;;;5055773;28;20210;-65
2023/10/22 07:37:50;;;;;;;2.88;2.30;;;11.70;99.90;;;;;;5055936;28;20655;-65
2023/10/22 07:40:19;;;;;;;2.40;2.30;;;11.70;99.90;;;;;;5037791;28;20252;-65
2023/10/22 07:42:48;;;;;;;2.63;2.30;;;11.70;99.90;;;;;;5055866;28;20182;-67
2023/10/22 07:45:14;;;;;;;2.35;2.25;;;11.70;99.90;;;;;;5054233;28;20647;-67
2023/10/22 07:47:40;;;;;;;2.80;2.60;;;11.70;99.90;;;;;;5037842;28;20206;-67
2023/10/22 07:50:06;;;;;;;2.30;2.20;;;11.70;99.90;;;;;;5070678;28;20186;-66
2023/10/22 07:52:34;;;;;;;3.10;2.53;;;11.70;99.90;;;;;;5055896;28;20175;-66
2023/10/22 07:55:00;;;;;;;2.58;2.30;;;11.70;99.90;;;;;;5055420;28;20194;-66
2023/10/22 07:57:27;;;;;;;2.40;2.25;;;11.80;99.90;;;;;;5056122;28;20191;-67
2023/10/22 07:59:54;;;;;;;2.20;2.10;;;11.70;99.90;;;;;;5055536;28;20182;-67
2023/10/22 08:02:20;;;;;;;2.20;2.10;;;11.80;99.90;;;;;;5054364;28;20265;-66
2023/10/22 08:04:46;;;;;;;4.20;2.30;;;11.80;99.90;;;;;;5053904;28;20270;-66
2023/10/22 08:07:12;;;;;;;2.45;2.25;;;11.80;99.90;;;;;;5053502;28;20703;-67
2023/10/22 08:09:37;;;;;;;2.25;2.15;;;11.80;99.90;;;;;;5055197;28;20159;-67
2023/10/22 08:12:03;;;;;;;3.88;2.25;;;11.90;99.90;;;;;;5056115;28;20155;-66
2023/10/22 08:14:29;;;;;;;2.40;2.20;;;11.90;99.90;;;;;;5055310;28;20194;-67
2023/10/22 08:16:55;;;;;;;3.05;2.30;;;12.00;99.90;;;;;;5052024;28;20228;-67
2023/10/22 08:19:21;;;;;;;2.97;2.00;;;12.00;99.90;;;;;;5053852;28;20212;-68
2023/10/22 08:21:46;;;;;;;2.60;2.40;;;12.00;99.90;;;;;;5054779;28;20214;-67
2023/10/22 08:24:12;;;;;;;2.97;2.50;;;12.00;99.90;;;;;;5037278;28;20193;-67
2023/10/22 08:26:38;;;;;;;2.28;2.10;;;12.00;99.90;;;;;;5055164;28;20167;-67
2023/10/22 08:29:04;;;;;;;2.72;2.53;;;12.00;99.90;;;;;;5037022;28;20206;-67
2023/10/22 08:31:30;;;;;;;2.78;2.33;;;12.00;99.90;;;;;;5052700;28;20190;-69
2023/10/22 08:33:55;;;;;;;2.58;2.38;;;12.00;99.90;;;;;;5055033;28;20220;-68
2023/10/22 08:36:22;;;;;;;3.75;2.20;;;12.10;99.90;;;;;;5037143;28;20175;-67
2023/10/22 08:38:48;;;;;;;2.78;2.25;;;12.00;99.90;;;;;;5036986;28;20204;-67
2023/10/22 08:41:21;;;;;;;2.33;2.20;;;12.00;99.90;;;;;;5036663;28;20182;-67
2023/10/22 08:43:48;;;;;;;2.85;2.20;;;12.10;99.90;;;;;;5055012;28;20165;-66
2023/10/22 08:46:18;;;;;;;2.40;2.30;;;12.10;99.90;;;;;;5068365;28;20186;-67
2023/10/22 08:48:44;;;;;;;2.40;2.20;;;12.20;99.90;;;;;;5054905;28;20198;-69
2023/10/22 08:51:10;;;;;;;2.33;2.17;;;12.20;99.90;;;;;;5070068;28;20182;-67
2023/10/22 08:53:36;;;;;;;2.30;2.20;;;12.20;99.90;;;;;;5054574;28;20224;-66
2023/10/22 08:56:03;;;;;;;2.50;2.40;;;12.20;99.90;;;;;;5054391;28;20171;-67
2023/10/22 08:58:29;;;;;;;2.75;2.30;;;12.30;99.90;;;;;;5054362;28;20199;-67
2023/10/22 09:00:56;;;;;;;2.50;2.30;;;12.40;99.90;;;;;;5050964;28;20186;-67
2023/10/22 09:03:25;;;;;;;2.67;2.20;;;12.40;99.90;;;;;;5036939;28;20206;-67
2023/10/22 09:05:53;;;;;;;2.40;2.30;;;12.40;99.90;;;;;;5053282;28;20650;-67
2023/10/22 09:08:19;;;;;;;2.50;2.30;;;12.50;99.90;;;;;;5054785;28;20199;-67
2023/10/22 09:10:45;;;;;;;2.40;2.30;;;12.50;99.90;;;;;;5051306;28;20187;-67
2023/10/22 09:13:22;;;;;;;2.53;2.25;;;12.60;99.90;;;;;;5044664;28;20181;-67
2023/10/22 09:15:50;;;;;;;2.58;2.38;;;12.60;99.90;;;;;;5062740;28;20216;-66
2023/10/22 09:18:17;;;;;;;2.55;2.35;;;12.60;99.90;;;;;;5060321;28;20670;-67
2023/10/22 09:20:44;;;;;;;2.35;2.20;;;12.60;99.90;;;;;;5067019;28;20185;-66
2023/10/22 09:23:18;;;;;;;4.38;2.45;;;12.70;99.90;;;;;;5060087;28;20206;-66
2023/10/22 09:25:55;;;;;;;2.40;2.03;;;12.70;99.90;;;;;;5051966;28;20642;-67
2023/10/22 09:28:27;;;;;;;2.40;2.20;;;12.70;99.90;;;;;;5036242;28;20206;-66
2023/10/22 09:30:59;;;;;;;3.33;2.30;;;12.70;99.90;;;;;;5047129;28;20178;-66
2023/10/22 09:33:41;;;;;;;2.30;2.20;;;12.70;99.90;;;;;;5057357;28;20211;-67
2023/10/22 09:36:10;;;;;;;2.35;2.10;;;12.70;99.90;;;;;;5057042;28;20639;-66
2023/10/22 09:38:49;;;;;;;2.45;2.25;;;12.70;99.90;;;;;;5064200;28;20225;-67
2023/10/22 09:41:25;;;;;;;3.03;2.30;;;12.70;99.90;;;;;;5067603;28;20165;-68
2023/10/22 09:43:51;;;;;;;3.20;2.40;;;12.70;99.90;;;;;;5038776;28;20187;-67
2023/10/22 09:46:21;;;;;;;2.70;2.17;;;12.70;99.90;;;;;;5066687;28;20178;-67
2023/10/22 09:48:50;;;;;;;4.07;2.20;;;12.70;99.90;;;;;;5063954;28;20196;-66
2023/10/22 09:51:17;;;;;;;2.75;2.55;;;12.80;99.90;;;;;;5058409;28;20214;-66
2023/10/22 09:53:55;;;;;;;3.25;2.53;;;12.70;99.90;;;;;;5069603;28;20198;-66
2023/10/22 09:56:22;;;;;;;2.15;2.05;;;12.70;99.90;;;;;;5042236;28;20162;-66
2023/10/22 09:58:56;;;;;;;2.53;2.33;;;12.70;99.90;;;;;;5062018;28;20201;-66
2023/10/22 10:01:24;;;;;;;4.63;2.40;;;12.60;99.90;;;;;;5068736;28;20166;-66
2023/10/22 10:03:51;;;;;;;2.47;2.30;;;12.60;99.90;;;;;;5038134;28;20586;-66
2023/10/22 10:06:18;;;;;;;2.50;2.30;;;12.60;99.90;;;;;;5048461;28;20209;-66
2023/10/22 10:08:44;;;;;;;2.40;2.30;;;12.70;99.90;;;;;;5054758;28;20240;-67
2023/10/22 10:11:13;;;;;;;2.35;2.20;;;12.70;99.90;;;;;;5042459;28;20178;-67
2023/10/22 10:13:40;;;;;;;2.35;2.20;;;12.70;99.90;;;;;;5052947;28;20202;-68
2023/10/22 10:16:06;;;;;;;4.35;2.50;;;12.70;99.90;;;;;;5050519;28;20185;-67
2023/10/22 10:19:09;;;;;;;4.13;2.13;;;12.80;99.90;;;;;;5052643;28;20198;-67
2023/10/22 10:21:45;;;;;;;3.42;2.25;;;12.80;99.90;;;;;;5048058;28;20224;-67
2023/10/22 10:24:14;;;;;;;2.78;2.35;;;12.80;99.90;;;;;;5037997;28;20182;-67
2023/10/22 10:26:43;;;;;;;6.28;2.30;;;12.80;99.90;;;;;;5051445;28;20190;-68
2023/10/22 10:29:16;;;;;;;4.93;2.40;;;12.80;99.90;;;;;;5048589;28;20303;-67
2023/10/22 10:31:45;;;;;;;2.30;2.20;;;12.70;99.90;;;;;;5035457;28;20210;-67
2023/10/22 10:34:27;;;;;;;2.83;2.30;;;12.80;99.90;;;;;;5031815;28;20238;-67
2023/10/22 10:36:53;;;;;;;6.10;2.63;;;12.80;99.90;;;;;;5031882;28;20551;-67
2023/10/22 10:39:38;;;;;;;2.40;2.20;;;12.70;99.90;;;;;;5031927;28;20210;-68
2023/10/22 10:42:04;;;;;;;2.60;2.17;;;12.70;99.90;;;;;;5030814;28;20196;-68
2023/10/22 10:44:31;;;;;;;2.42;2.20;;;12.70;99.90;;;;;;5026342;28;20205;-68
2023/10/22 10:47:22;;;;;;;3.17;2.38;;;12.70;99.90;;;;;;5032444;28;20182;-67
2023/10/22 10:50:06;;;;;;;2.40;2.30;;;12.70;99.90;;;;;;5032991;28;20164;-67
2023/10/22 10:52:35;;;;;;;2.42;2.25;;;12.80;99.90;;;;;;5031320;28;20167;-67
2023/10/22 10:55:20;;;;;;;3.42;2.17;;;12.80;99.90;;;;;;5040210;28;20209;-68
2023/10/22 10:57:53;;;;;;;3.15;2.20;;;12.80;99.90;;;;;;5051118;28;20196;-68
2023/10/22 11:00:22;;;;;;;2.30;2.20;;;12.80;99.90;;;;;;5032976;28;20655;-68
2023/10/22 11:02:51;;;;;;;4.60;2.33;;;12.90;99.90;;;;;;5032352;28;20189;-67
2023/10/22 11:05:46;;;;;;;2.20;2.10;;;12.90;99.90;;;;;;5032988;28;20175;-67
2023/10/22 11:08:22;;;;;;;2.72;2.28;;;13.00;99.90;;;;;;5032751;28;20762;-67
2023/10/22 11:10:49;;;;;;;4.95;2.40;;;13.00;99.90;;;;;;5032617;28;20160;-67
2023/10/22 11:13:15;;;;;;;3.63;2.30;;;13.10;99.90;;;;;;5032609;28;20168;-66
2023/10/22 11:15:41;;;;;;;3.00;2.50;;;13.10;99.90;;;;;;5031503;28;20274;-68
2023/10/22 11:18:09;;;;;;;2.47;2.28;;;13.20;99.90;;;;;;5031307;28;20199;-67
2023/10/22 11:20:37;;;;;;;2.65;2.20;;;13.20;99.90;;;;;;5032362;28;20199;-68
2023/10/22 11:23:03;;;;;;;2.10;1.95;;;13.20;99.90;;;;;;5032763;28;20213;-67
2023/10/22 11:25:29;;;;;;;2.20;2.00;;;13.20;99.90;;;;;;5036064;28;20185;-68
2023/10/22 11:27:55;;;;;;;2.10;2.00;;;13.20;99.90;;;;;;5036569;28;20199;-66
2023/10/22 11:30:41;;;;;;;3.20;2.05;;;13.10;99.90;;;;;;5034676;28;20186;-67
2023/10/22 11:33:26;;;;;;;4.95;2.17;;;13.10;99.90;;;;;;5036498;28;20243;-68
2023/10/22 11:35:55;;;;;;;2.78;2.53;;;13.10;99.90;;;;;;5055225;28;20243;-67
2023/10/22 11:38:22;;;;;;;2.30;2.10;;;13.10;99.90;;;;;;5052806;28;20281;-68
2023/10/22 11:40:53;;;;;;;3.42;2.35;;;13.10;99.90;;;;;;5055760;28;20709;-68
2023/10/22 11:43:19;;;;;;;2.40;2.20;;;13.10;99.90;;;;;;5055922;28;20166;-67
2023/10/22 11:45:55;;;;;;;4.95;2.30;;;13.10;99.90;;;;;;5055860;28;20170;-67
2023/10/22 11:48:26;;;;;;;2.30;2.20;;;13.10;99.90;;;;;;5055873;28;20182;-67
2023/10/22 11:50:56;;;;;;;2.25;2.08;;;13.20;99.90;;;;;;5055810;28;20242;-67
2023/10/22 11:53:22;;;;;;;4.28;2.30;;;13.20;99.90;;;;;;5037603;28;20173;-67
2023/10/22 11:55:48;;;;;;;3.65;2.42;;;13.20;99.90;;;;;;5053961;28;20186;-67
2023/10/22 11:58:20;;;;;;;4.22;2.47;;;13.20;99.90;;;;;;5054016;28;20202;-68
2023/10/22 12:00:47;;;;;;;2.47;2.10;;;13.20;99.90;;;;;;5037686;28;20179;-68
2023/10/22 12:03:13;;;;;;;5.85;2.50;;;13.20;99.90;;;;;;5055444;28;20174;-68
2023/10/22 12:05:39;;;;;;;2.80;1.92;;;13.30;99.90;;;;;;5055434;28;20207;-68
2023/10/22 12:08:05;;;;;;;2.00;1.90;;;13.30;99.90;;;;;;5037485;28;20229;-68
2023/10/22 12:10:30;;;;;;;3.45;2.03;;;13.30;99.90;;;;;;5054916;28;20532;-68
2023/10/22 12:12:57;;;;;;;3.63;2.28;;;13.30;99.90;;;;;;5055350;28;20177;-68
2023/10/22 12:15:22;;;;;;;2.67;2.10;;;13.30;99.90;;;;;;5037388;28;20686;-67
2023/10/22 12:17:48;;;;;;;3.08;2.00;;;13.30;99.90;;;;;;5052572;28;20198;-67
2023/10/22 12:20:14;;;;;;;2.72;2.10;;;13.20;99.90;;;;;;5044528;28;20195;-68
2023/10/22 12:22:40;;;;;;;2.05;1.95;;;13.30;99.90;;;;;;5055273;28;20182;-67
2023/10/22 12:25:06;;;;;;;2.40;2.17;;;13.30;99.90;;;;;;5053559;28;20231;-68
2023/10/22 12:27:32;;;;;;;2.33;2.13;;;13.30;99.90;;;;;;5054629;28;20672;-67
2023/10/22 12:29:59;;;;;;;3.45;2.30;;;13.30;99.90;;;;;;5041438;28;20273;-68
2023/10/22 12:32:24;;;;;;;2.58;2.03;;;13.40;99.90;;;;;;5035671;28;20662;-68
2023/10/22 12:34:50;;;;;;;2.95;2.40;;;13.50;99.90;;;;;;5033570;28;20298;-68
2023/10/22 12:37:16;;;;;;;2.50;2.10;;;13.60;99.90;;;;;;5033701;28;20582;-66
2023/10/22 12:39:42;;;;;;;4.10;2.05;;;13.60;99.90;;;;;;5030428;28;20318;-68
2023/10/22 12:42:09;;;;;;;2.50;2.10;;;13.60;99.90;;;;;;5031532;28;20555;-68
2023/10/22 12:44:34;;;;;;;2.15;2.05;;;13.60;99.90;;;;;;5035003;28;20215;-67
2023/10/22 12:47:01;;;;;;;3.97;2.13;;;13.60;99.90;;;;;;5033507;28;20222;-67
2023/10/22 12:49:27;;;;;;;3.40;2.13;;;13.60;99.90;;;;;;5033334;28;20198;-67